Time;durP1;ratioP1;P1;durP2;ratioP2;P2;SDS_P1;SDS_P2;PMS_P1;PMS_P2;Temp;Humidity;BMP_temperature;BMP_pressure;BME280_temperature;BME280_humidity;BME280_pressure;Samples;Min_cycle;Max_cycle;Signal;HPM_P1;HPM_P2
2022/07/18 00:00:07;;;;;;;1.80;1.52;;;24.70;99.00;;;;;;4265891;27;20284;-78
2022/07/18 00:02:10;;;;;;;2.17;1.80;;;24.70;98.90;;;;;;4265789;27;20276;-77
2022/07/18 00:04:12;;;;;;;2.03;1.67;;;24.70;98.80;;;;;;4266187;27;20724;-77
2022/07/18 00:06:14;;;;;;;2.08;1.88;;;24.70;99.00;;;;;;4265934;27;20236;-77
2022/07/18 00:08:17;;;;;;;3.40;1.75;;;24.70;98.80;;;;;;4266585;27;20212;-77
2022/07/18 00:10:20;;;;;;;2.42;1.50;;;24.70;98.80;;;;;;4265812;27;20269;-78
2022/07/18 00:12:23;;;;;;;1.77;1.67;;;24.70;98.80;;;;;;4266183;27;20652;-78
2022/07/18 00:14:25;;;;;;;2.03;1.45;;;24.70;98.90;;;;;;4265471;27;20721;-77
2022/07/18 00:16:28;;;;;;;1.92;1.70;;;24.70;98.80;;;;;;4265678;27;20237;-78
2022/07/18 00:18:31;;;;;;;2.30;1.60;;;24.70;98.90;;;;;;4265524;27;20261;-78
2022/07/18 00:20:33;;;;;;;2.22;1.85;;;24.70;98.90;;;;;;4265489;27;20301;-78
2022/07/18 00:22:35;;;;;;;2.78;1.70;;;24.70;98.90;;;;;;4265661;27;20270;-78
2022/07/18 00:24:38;;;;;;;1.75;1.50;;;24.60;98.70;;;;;;4265837;27;20208;-78
2022/07/18 00:26:41;;;;;;;2.03;1.80;;;24.70;98.90;;;;;;4252663;27;20282;-77
2022/07/18 00:28:44;;;;;;;3.33;1.75;;;24.60;98.70;;;;;;4248899;27;20213;-78
2022/07/18 00:30:46;;;;;;;2.00;1.80;;;24.60;98.70;;;;;;4248044;27;20218;-78
2022/07/18 00:32:48;;;;;;;2.95;1.90;;;24.60;98.70;;;;;;4248821;27;20274;-78
2022/07/18 00:34:51;;;;;;;2.65;1.75;;;24.70;98.80;;;;;;4248482;27;20609;-78
2022/07/18 00:36:53;;;;;;;2.10;1.58;;;24.60;98.80;;;;;;4248442;27;20217;-77
2022/07/18 00:38:56;;;;;;;2.72;1.83;;;24.60;98.80;;;;;;4248031;27;20266;-78
2022/07/18 00:40:58;;;;;;;1.77;1.50;;;24.60;98.90;;;;;;4248585;27;20266;-78
2022/07/18 00:43:02;;;;;;;2.53;1.67;;;24.60;98.80;;;;;;4248128;27;20221;-78
2022/07/18 00:45:05;;;;;;;2.17;1.98;;;24.60;98.90;;;;;;4248146;27;20239;-78
2022/07/18 00:47:07;;;;;;;1.98;1.70;;;24.60;98.90;;;;;;4248087;27;20258;-78
2022/07/18 00:49:09;;;;;;;1.88;1.63;;;24.60;98.90;;;;;;4248395;27;20221;-78
2022/07/18 00:51:12;;;;;;;2.30;1.70;;;24.60;98.80;;;;;;4248035;27;20280;-77
2022/07/18 00:53:14;;;;;;;2.03;1.83;;;24.60;98.90;;;;;;4247768;27;20254;-78
2022/07/18 00:55:17;;;;;;;2.78;1.77;;;24.60;98.90;;;;;;4247936;27;20615;-78
2022/07/18 00:57:19;;;;;;;3.20;1.98;;;24.60;98.80;;;;;;4248111;27;20254;-78
2022/07/18 01:01:42;;;;;;;3.30;1.92;;;24.50;98.80;;;;;;4248024;27;20653;-78
2022/07/18 01:01:47;;;;;;;3.85;1.92;;;24.50;98.70;;;;;;4246376;27;20221;-78
2022/07/18 01:03:49;;;;;;;2.78;1.70;;;24.60;98.50;;;;;;4240700;27;20610;-78
2022/07/18 01:05:52;;;;;;;1.92;1.67;;;24.50;98.70;;;;;;4231016;28;20245;-78
2022/07/18 01:07:54;;;;;;;2.28;1.90;;;24.50;98.80;;;;;;4230815;28;20222;-78
2022/07/18 01:09:56;;;;;;;1.98;1.60;;;24.50;98.80;;;;;;4231427;28;20221;-78
2022/07/18 01:11:59;;;;;;;2.88;1.75;;;24.50;98.80;;;;;;4231417;28;20213;-78
2022/07/18 01:14:02;;;;;;;1.92;1.70;;;24.50;98.80;;;;;;4230440;28;20265;-78
2022/07/18 01:16:07;;;;;;;2.88;1.67;;;24.50;98.90;;;;;;4230598;28;20259;-78
2022/07/18 01:18:09;;;;;;;3.45;2.00;;;24.50;98.70;;;;;;4230799;28;20267;-78
2022/07/18 01:20:12;;;;;;;2.88;1.90;;;24.50;98.70;;;;;;4230266;28;20238;-78
2022/07/18 01:22:19;;;;;;;2.20;1.70;;;24.50;98.70;;;;;;4230727;28;20214;-78
2022/07/18 01:24:21;;;;;;;2.47;1.73;;;24.50;98.70;;;;;;4230430;28;20214;-77
2022/07/18 01:26:24;;;;;;;3.53;2.03;;;24.50;98.70;;;;;;4250524;27;20228;-79
2022/07/18 01:28:26;;;;;;;3.25;1.83;;;24.50;98.70;;;;;;4264907;27;20261;-78
2022/07/18 01:30:29;;;;;;;2.10;1.60;;;24.50;98.70;;;;;;4265217;27;20603;-78
2022/07/18 01:32:31;;;;;;;2.30;1.80;;;24.50;98.80;;;;;;4264405;27;20663;-78
2022/07/18 01:34:33;;;;;;;2.35;1.70;;;24.50;98.70;;;;;;4264782;27;20268;-78
2022/07/18 01:36:36;;;;;;;2.20;1.70;;;24.50;98.70;;;;;;4264239;27;20208;-78
2022/07/18 01:38:39;;;;;;;2.03;1.83;;;24.50;98.80;;;;;;4264884;27;20217;-78
2022/07/18 01:40:42;;;;;;;2.63;1.83;;;24.50;98.70;;;;;;4264655;27;20245;-78
2022/07/18 01:42:45;;;;;;;3.25;1.80;;;24.50;98.70;;;;;;4264474;27;20216;-78
2022/07/18 01:44:47;;;;;;;2.55;1.63;;;24.40;98.70;;;;;;4264427;27;20234;-78
2022/07/18 01:46:49;;;;;;;6.18;2.05;;;24.50;98.70;;;;;;4264443;27;20329;-78
2022/07/18 01:48:52;;;;;;;2.60;2.17;;;24.40;98.60;;;;;;4264035;27;20257;-79
2022/07/18 01:50:54;;;;;;;2.70;1.90;;;24.50;98.70;;;;;;4264519;27;20224;-78
2022/07/18 01:52:56;;;;;;;2.25;1.88;;;24.50;98.70;;;;;;4264231;27;20212;-78
2022/07/18 01:55:00;;;;;;;2.75;1.77;;;24.40;98.60;;;;;;4264028;27;20261;-78
2022/07/18 01:57:05;;;;;;;3.35;2.00;;;24.40;98.50;;;;;;4264516;27;20648;-78
2022/07/18 01:59:07;;;;;;;2.38;1.70;;;24.40;98.60;;;;;;4263917;27;20258;-78
2022/07/18 02:01:09;;;;;;;1.63;1.52;;;24.40;98.50;;;;;;4263898;27;20216;-78
2022/07/18 02:03:12;;;;;;;2.10;1.70;;;24.40;98.70;;;;;;4264216;27;20216;-78
2022/07/18 02:05:14;;;;;;;3.58;2.15;;;24.40;98.60;;;;;;4264110;27;20232;-78
2022/07/18 02:07:16;;;;;;;2.28;1.70;;;24.40;98.70;;;;;;4264370;27;20236;-78
2022/07/18 02:09:19;;;;;;;2.22;1.63;;;24.40;98.90;;;;;;4263788;27;20216;-78
2022/07/18 02:11:22;;;;;;;2.28;2.08;;;24.40;98.70;;;;;;4263930;27;20212;-78
2022/07/18 02:13:25;;;;;;;2.17;1.80;;;24.40;98.70;;;;;;4263861;27;20292;-78
2022/07/18 02:15:27;;;;;;;2.28;1.77;;;24.40;98.70;;;;;;4263700;27;20212;-78
2022/07/18 02:17:29;;;;;;;2.15;1.90;;;24.40;98.70;;;;;;4264110;27;20208;-78
2022/07/18 02:19:31;;;;;;;3.75;2.05;;;24.40;98.70;;;;;;4263630;27;20261;-79
2022/07/18 02:21:34;;;;;;;3.15;2.22;;;24.40;98.60;;;;;;4263891;27;20212;-79
2022/07/18 02:23:36;;;;;;;2.95;1.80;;;24.40;98.70;;;;;;4263735;27;20233;-78
2022/07/18 02:25:38;;;;;;;2.88;2.00;;;24.40;98.70;;;;;;4260211;27;20706;-78
2022/07/18 02:27:42;;;;;;;2.47;1.98;;;24.40;98.70;;;;;;4247015;28;20308;-78
2022/07/18 02:29:45;;;;;;;3.60;1.63;;;24.40;98.70;;;;;;4247172;28;20212;-79
2022/07/18 02:31:47;;;;;;;2.40;1.85;;;24.40;98.70;;;;;;4246957;28;20216;-78
2022/07/18 02:33:49;;;;;;;2.28;1.73;;;24.40;99.00;;;;;;4246327;28;20213;-78
2022/07/18 02:35:52;;;;;;;2.63;2.05;;;24.40;99.10;;;;;;4246871;28;20217;-78
2022/07/18 02:37:54;;;;;;;2.78;1.80;;;24.40;98.70;;;;;;4247463;28;20664;-78
2022/07/18 02:39:56;;;;;;;4.35;1.90;;;24.40;98.70;;;;;;4246773;28;20208;-78
2022/07/18 02:41:59;;;;;;;4.05;2.10;;;24.30;98.60;;;;;;4246956;28;20270;-78
2022/07/18 02:44:04;;;;;;;2.42;1.70;;;24.40;98.70;;;;;;4246653;28;20738;-78
2022/07/18 02:46:06;;;;;;;3.35;1.98;;;24.40;98.70;;;;;;4246262;28;20213;-78
2022/07/18 02:48:09;;;;;;;2.67;1.92;;;24.30;98.60;;;;;;4246626;28;20265;-78
2022/07/18 02:50:15;;;;;;;2.60;1.92;;;24.30;98.60;;;;;;4243719;28;20209;-78
2022/07/18 02:52:17;;;;;;;3.15;2.00;;;24.40;98.70;;;;;;4240735;28;20217;-79
2022/07/18 02:54:19;;;;;;;2.90;1.80;;;24.30;98.60;;;;;;4229929;28;20214;-78
2022/07/18 02:56:21;;;;;;;2.03;1.70;;;24.40;98.70;;;;;;4230147;28;20565;-78
2022/07/18 02:58:24;;;;;;;3.83;2.08;;;24.30;98.60;;;;;;4230157;28;20605;-79
2022/07/18 03:00:27;;;;;;;3.97;1.90;;;24.30;98.60;;;;;;4229708;28;20218;-78
2022/07/18 03:02:30;;;;;;;3.63;2.03;;;24.30;98.60;;;;;;4229374;28;20209;-78
2022/07/18 03:04:32;;;;;;;3.28;1.80;;;24.30;98.70;;;;;;4229605;28;20700;-79
2022/07/18 03:06:35;;;;;;;2.75;1.90;;;24.30;98.60;;;;;;4230100;28;20286;-79
2022/07/18 03:08:37;;;;;;;1.92;1.70;;;24.30;98.60;;;;;;4229698;28;20555;-78
2022/07/18 03:10:40;;;;;;;3.58;1.90;;;24.30;98.70;;;;;;4229840;28;20259;-79
2022/07/18 03:12:43;;;;;;;2.53;1.73;;;24.30;98.70;;;;;;4229494;28;20330;-79
2022/07/18 03:14:45;;;;;;;2.60;1.80;;;24.30;99.00;;;;;;4229946;28;20231;-78
2022/07/18 03:16:49;;;;;;;3.28;2.08;;;24.30;98.70;;;;;;4229583;28;20719;-78
2022/07/18 03:18:51;;;;;;;3.30;2.05;;;24.30;98.70;;;;;;4229341;28;20278;-78
2022/07/18 03:20:54;;;;;;;3.10;2.30;;;24.30;98.60;;;;;;4229148;28;20245;-78
2022/07/18 03:22:56;;;;;;;3.00;2.00;;;24.30;98.60;;;;;;4229771;28;20214;-78
2022/07/18 03:24:58;;;;;;;5.03;2.00;;;24.20;98.70;;;;;;4229680;28;20221;-79
2022/07/18 03:27:01;;;;;;;2.63;1.80;;;24.30;98.60;;;;;;4260000;27;20228;-78
2022/07/18 03:29:03;;;;;;;2.90;1.88;;;24.30;98.70;;;;;;4266252;27;20216;-78
2022/07/18 03:31:06;;;;;;;2.28;2.00;;;24.30;99.00;;;;;;4266514;27;20348;-79
2022/07/18 03:33:09;;;;;;;2.47;1.83;;;24.30;98.70;;;;;;4266714;27;20615;-79
2022/07/18 03:35:12;;;;;;;2.90;1.90;;;24.20;98.70;;;;;;4266873;27;20208;-79
2022/07/18 03:37:14;;;;;;;4.05;2.13;;;24.20;98.70;;;;;;4266791;27;20217;-79
2022/07/18 03:39:17;;;;;;;2.97;1.88;;;24.20;98.70;;;;;;4265882;27;20216;-79
2022/07/18 03:41:19;;;;;;;2.38;1.77;;;24.20;98.60;;;;;;4266606;27;20266;-79
2022/07/18 03:43:21;;;;;;;2.83;2.05;;;24.20;98.70;;;;;;4266484;27;20253;-79
2022/07/18 03:45:23;;;;;;;2.83;2.13;;;24.20;98.60;;;;;;4266115;27;20224;-79
2022/07/18 03:47:26;;;;;;;1.80;1.63;;;24.20;98.70;;;;;;4267655;27;20232;-76
2022/07/18 03:49:29;;;;;;;2.85;1.90;;;24.20;98.70;;;;;;4278373;27;20224;-78
2022/07/18 03:51:31;;;;;;;3.03;2.05;;;24.20;98.70;;;;;;4279223;27;20221;-78
2022/07/18 03:53:34;;;;;;;3.03;2.00;;;24.20;98.70;;;;;;4273269;27;20276;-79
2022/07/18 03:55:36;;;;;;;2.78;1.80;;;24.20;98.60;;;;;;4272732;27;20621;-78
2022/07/18 03:57:39;;;;;;;2.92;1.90;;;24.20;98.70;;;;;;4266445;27;20204;-79
2022/07/18 03:59:41;;;;;;;2.42;1.85;;;24.20;98.60;;;;;;4266627;27;20212;-78
2022/07/18 04:01:44;;;;;;;2.72;2.00;;;24.20;98.70;;;;;;4266684;27;20216;-78
2022/07/18 04:03:46;;;;;;;2.58;2.00;;;24.20;98.70;;;;;;4266266;27;20208;-78
2022/07/18 04:05:50;;;;;;;2.88;2.00;;;24.20;98.70;;;;;;4265786;27;20216;-78
2022/07/18 04:07:52;;;;;;;2.15;1.95;;;24.20;98.70;;;;;;4265795;27;20692;-79
2022/07/18 04:09:55;;;;;;;2.95;1.92;;;24.20;98.70;;;;;;4266052;27;20672;-78
2022/07/18 04:11:57;;;;;;;2.97;2.00;;;24.20;98.70;;;;;;4266449;27;20671;-78
2022/07/18 04:13:59;;;;;;;3.65;2.22;;;24.20;99.10;;;;;;4266130;27;20701;-78
2022/07/18 04:16:02;;;;;;;3.92;1.85;;;24.20;98.70;;;;;;4265942;27;20644;-78
2022/07/18 04:18:04;;;;;;;2.38;2.00;;;24.20;98.70;;;;;;4266198;27;20208;-78
2022/07/18 04:20:08;;;;;;;3.75;2.00;;;24.20;98.70;;;;;;4265603;27;20244;-78
2022/07/18 04:22:12;;;;;;;2.67;1.80;;;24.20;98.70;;;;;;4265944;27;20212;-78
2022/07/18 04:24:14;;;;;;;2.88;1.92;;;24.20;98.70;;;;;;4266111;27;20272;-77
2022/07/18 04:26:17;;;;;;;2.90;2.00;;;24.20;98.60;;;;;;4256550;27;20213;-78
2022/07/18 04:28:19;;;;;;;4.38;2.25;;;24.20;98.60;;;;;;4248501;27;20612;-78
2022/07/18 04:30:25;;;;;;;2.60;2.13;;;24.20;98.60;;;;;;4248513;27;20209;-78
2022/07/18 04:32:28;;;;;;;4.63;2.03;;;24.20;98.70;;;;;;4248637;27;20220;-78
2022/07/18 04:34:30;;;;;;;3.42;1.70;;;24.20;98.70;;;;;;4248466;27;20616;-78
2022/07/18 04:36:32;;;;;;;2.63;2.15;;;24.20;98.70;;;;;;4248464;27;20217;-78
2022/07/18 04:38:37;;;;;;;2.67;1.90;;;24.20;98.70;;;;;;4244961;27;20266;-79
2022/07/18 04:40:39;;;;;;;2.00;1.80;;;24.20;98.70;;;;;;4247172;27;20217;-79
2022/07/18 04:42:43;;;;;;;3.58;2.03;;;24.20;98.70;;;;;;4231875;28;20213;-79
2022/07/18 04:44:45;;;;;;;2.90;2.00;;;24.10;98.70;;;;;;4231482;28;20213;-78
2022/07/18 04:46:47;;;;;;;4.18;2.47;;;24.20;98.70;;;;;;4231327;28;20213;-78
2022/07/18 04:48:50;;;;;;;3.50;2.10;;;24.20;98.70;;;;;;4231317;28;20274;-78
2022/07/18 04:50:52;;;;;;;3.40;2.03;;;24.10;98.70;;;;;;4231406;28;20213;-78
2022/07/18 04:52:54;;;;;;;2.75;2.08;;;24.10;98.80;;;;;;4231621;28;20221;-79
2022/07/18 04:54:58;;;;;;;4.88;2.30;;;24.10;98.70;;;;;;4231523;28;20255;-79
2022/07/18 04:57:00;;;;;;;2.20;2.00;;;24.20;98.80;;;;;;4231255;28;20661;-78
2022/07/18 04:59:02;;;;;;;3.38;1.90;;;24.10;98.70;;;;;;4231313;28;20226;-78
2022/07/18 05:01:05;;;;;;;2.80;1.90;;;24.10;98.80;;;;;;4230937;28;20221;-79
2022/07/18 05:03:07;;;;;;;2.78;2.00;;;24.10;98.80;;;;;;4231321;28;20612;-78
2022/07/18 05:05:11;;;;;;;4.32;2.30;;;24.10;98.70;;;;;;4231153;28;20217;-78
2022/07/18 05:07:13;;;;;;;2.78;2.10;;;24.10;98.70;;;;;;4231196;28;20669;-79
2022/07/18 05:09:15;;;;;;;4.53;2.05;;;24.20;98.90;;;;;;4230827;28;20237;-78
2022/07/18 05:11:19;;;;;;;2.85;2.13;;;24.10;98.70;;;;;;4231119;28;20703;-78
2022/07/18 05:13:21;;;;;;;4.05;2.53;;;24.20;98.70;;;;;;4230683;28;20222;-78
2022/07/18 05:15:25;;;;;;;3.25;2.40;;;24.10;98.70;;;;;;4230850;28;20263;-78
2022/07/18 05:17:28;;;;;;;4.93;2.38;;;24.10;98.80;;;;;;4230754;28;20625;-78
2022/07/18 05:19:30;;;;;;;2.38;2.00;;;24.10;98.70;;;;;;4231057;28;20267;-78
2022/07/18 05:21:32;;;;;;;4.55;2.40;;;24.10;98.70;;;;;;4230844;28;20217;-78
2022/07/18 05:23:34;;;;;;;2.60;1.85;;;24.10;98.60;;;;;;4230636;28;20614;-78
2022/07/18 05:25:37;;;;;;;3.10;2.20;;;24.20;98.70;;;;;;4237365;27;20201;-78
2022/07/18 05:27:41;;;;;;;3.20;2.28;;;24.10;98.60;;;;;;4264550;27;20257;-78
2022/07/18 05:29:44;;;;;;;4.53;2.08;;;24.20;99.10;;;;;;4265104;27;20208;-79
2022/07/18 05:31:46;;;;;;;3.50;2.40;;;24.10;98.70;;;;;;4264737;27;20264;-78
2022/07/18 05:33:48;;;;;;;3.30;2.05;;;24.20;98.80;;;;;;4264978;27;20216;-78
2022/07/18 05:35:51;;;;;;;3.83;2.25;;;24.10;98.70;;;;;;4264827;27;20656;-78
2022/07/18 05:37:53;;;;;;;4.53;2.15;;;24.10;98.80;;;;;;4264463;27;20228;-79
2022/07/18 05:39:55;;;;;;;2.58;1.80;;;24.20;98.90;;;;;;4264871;27;20224;-78
2022/07/18 05:41:58;;;;;;;4.85;2.38;;;24.10;98.90;;;;;;4264373;27;20216;-78
2022/07/18 05:44:01;;;;;;;5.93;2.47;;;24.20;99.30;;;;;;4264449;27;20213;-78
2022/07/18 05:46:04;;;;;;;3.42;2.03;;;24.10;99.20;;;;;;4265036;27;20204;-79
2022/07/18 05:48:08;;;;;;;4.85;2.63;;;24.10;98.90;;;;;;4264858;27;20236;-79
2022/07/18 05:50:10;;;;;;;5.40;2.13;;;24.10;98.90;;;;;;4264092;27;20212;-78
2022/07/18 05:52:13;;;;;;;6.32;2.35;;;24.20;99.00;;;;;;4264273;27;20212;-78
2022/07/18 05:54:18;;;;;;;3.92;2.03;;;24.20;99.40;;;;;;4264581;27;20611;-78
2022/07/18 05:56:21;;;;;;;2.45;2.00;;;24.20;99.00;;;;;;4264118;27;20264;-78
2022/07/18 05:58:23;;;;;;;4.93;2.40;;;24.20;98.90;;;;;;4264092;27;20216;-79
2022/07/18 06:00:27;;;;;;;3.83;1.80;;;24.20;99.00;;;;;;4264563;27;20217;-78
2022/07/18 06:02:29;;;;;;;4.28;2.35;;;24.20;99.10;;;;;;4264466;27;20208;-78
2022/07/18 06:04:31;;;;;;;5.03;2.30;;;24.10;99.10;;;;;;4264200;27;20212;-78
2022/07/18 06:06:34;;;;;;;3.97;2.33;;;24.20;99.10;;;;;;4264110;27;20656;-78
2022/07/18 06:08:36;;;;;;;4.88;2.30;;;24.20;99.10;;;;;;4263775;27;20638;-78
2022/07/18 06:10:38;;;;;;;4.80;2.40;;;24.20;99.10;;;;;;4264317;27;20554;-78
2022/07/18 06:12:43;;;;;;;3.78;2.10;;;24.10;99.20;;;;;;4264227;27;20216;-78
2022/07/18 06:14:45;;;;;;;3.97;2.30;;;24.20;99.20;;;;;;4264304;27;20216;-79
2022/07/18 06:16:49;;;;;;;5.38;1.98;;;24.20;99.20;;;;;;4263784;27;20273;-78
2022/07/18 06:18:51;;;;;;;3.28;2.13;;;24.10;99.20;;;;;;4264371;27;20213;-80
2022/07/18 06:20:54;;;;;;;4.07;2.25;;;24.20;99.30;;;;;;4263765;27;20281;-79
2022/07/18 06:22:56;;;;;;;3.65;2.00;;;24.20;99.20;;;;;;4263776;27;20463;-79
2022/07/18 06:24:58;;;;;;;2.92;2.20;;;24.20;99.30;;;;;;4264349;27;20256;-79
2022/07/18 06:27:01;;;;;;;3.70;2.40;;;24.20;99.40;;;;;;4244461;27;20282;-79
2022/07/18 06:29:04;;;;;;;5.47;2.40;;;24.20;99.50;;;;;;4240903;27;20286;-79
2022/07/18 06:31:06;;;;;;;2.55;2.22;;;24.20;99.50;;;;;;4230446;28;20225;-79
2022/07/18 06:33:10;;;;;;;2.00;1.80;;;24.20;99.70;;;;;;4229871;28;20206;-79
2022/07/18 06:35:12;;;;;;;5.13;2.17;;;24.20;99.50;;;;;;4230215;28;20273;-79
2022/07/18 06:37:15;;;;;;;4.82;2.50;;;24.20;99.50;;;;;;4229978;28;20218;-79
2022/07/18 06:39:18;;;;;;;4.80;2.15;;;24.20;99.40;;;;;;4230350;28;20213;-79
2022/07/18 06:41:20;;;;;;;2.83;2.20;;;24.20;99.50;;;;;;4230301;28;20262;-79
2022/07/18 06:43:23;;;;;;;3.13;2.05;;;24.20;99.60;;;;;;4230080;28;20266;-79
2022/07/18 06:45:25;;;;;;;3.08;2.10;;;24.20;99.50;;;;;;4230128;28;20214;-79
2022/07/18 06:47:28;;;;;;;4.65;2.10;;;24.20;99.60;;;;;;4229652;28;20254;-79
2022/07/18 06:49:31;;;;;;;3.53;1.95;;;24.20;99.60;;;;;;4230027;28;20309;-79
2022/07/18 06:51:33;;;;;;;3.13;2.13;;;24.20;99.60;;;;;;4229920;28;20221;-79
2022/07/18 06:53:36;;;;;;;4.45;2.53;;;24.20;99.40;;;;;;4230183;28;20674;-79
2022/07/18 06:55:38;;;;;;;4.05;2.30;;;24.20;99.50;;;;;;4230172;28;20232;-79
2022/07/18 06:57:41;;;;;;;3.15;2.42;;;24.20;99.50;;;;;;4229740;28;20254;-79
2022/07/18 06:59:44;;;;;;;4.03;2.40;;;24.20;99.60;;;;;;4229834;28;20717;-79
2022/07/18 07:01:46;;;;;;;3.92;2.13;;;24.20;99.60;;;;;;4229870;28;20222;-79
2022/07/18 07:03:49;;;;;;;4.45;2.42;;;24.20;99.50;;;;;;4232469;28;20270;-79
2022/07/18 07:05:52;;;;;;;3.05;2.17;;;24.20;99.50;;;;;;4233499;28;20213;-78
2022/07/18 07:07:54;;;;;;;3.35;2.20;;;24.20;99.50;;;;;;4232833;28;20613;-79
2022/07/18 07:09:57;;;;;;;3.05;2.30;;;24.20;99.40;;;;;;4240001;28;20237;-78
2022/07/18 07:11:59;;;;;;;2.88;2.03;;;24.20;99.50;;;;;;4243434;27;20214;-78
2022/07/18 07:14:01;;;;;;;8.38;2.45;;;24.30;99.20;;;;;;4255921;27;20213;-78
2022/07/18 07:16:04;;;;;;;5.28;2.05;;;24.30;99.20;;;;;;4256937;27;20209;-78
2022/07/18 07:18:07;;;;;;;5.97;2.05;;;24.30;99.20;;;;;;4258836;27;20216;-78
2022/07/18 07:20:10;;;;;;;2.83;1.98;;;24.30;99.30;;;;;;4245972;27;21642;-78
2022/07/18 07:22:14;;;;;;;4.30;2.50;;;24.30;99.00;;;;;;4235638;27;20209;-81
2022/07/18 07:24:16;;;;;;;4.88;2.35;;;24.30;98.80;;;;;;4245814;27;20596;-82
2022/07/18 07:26:18;;;;;;;5.07;2.05;;;24.30;98.40;;;;;;4246145;27;20220;-81
2022/07/18 07:28:21;;;;;;;4.22;2.22;;;24.20;98.40;;;;;;4244223;27;20209;-78
2022/07/18 07:30:23;;;;;;;4.80;2.38;;;24.20;98.10;;;;;;4245583;27;21010;-81
2022/07/18 07:32:26;;;;;;;4.03;2.40;;;24.30;97.80;;;;;;4246776;27;20209;-78
2022/07/18 07:34:30;;;;;;;9.60;3.30;;;24.30;97.50;;;;;;4245046;27;20209;-78
2022/07/18 07:36:32;;;;;;;9.65;2.92;;;24.40;97.80;;;;;;4216184;27;20214;-78
2022/07/18 07:38:36;;;;;;;6.78;2.65;;;24.40;98.90;;;;;;4234230;27;20218;-79
2022/07/18 07:40:38;;;;;;;6.65;3.13;;;24.40;99.30;;;;;;4244086;27;20620;-82
2022/07/18 07:42:40;;;;;;;5.80;2.80;;;24.40;98.80;;;;;;4244632;27;20262;-79
2022/07/18 07:44:43;;;;;;;8.23;2.92;;;24.40;98.70;;;;;;4243862;27;20218;-79
2022/07/18 07:46:45;;;;;;;6.55;2.75;;;24.50;99.90;;;;;;4242865;27;20206;-80
2022/07/18 07:48:48;;;;;;;7.07;2.80;;;24.50;98.60;;;;;;4232637;27;20631;-79
2022/07/18 07:50:51;;;;;;;8.98;2.65;;;24.50;98.60;;;;;;4243120;27;20278;-80
2022/07/18 07:52:53;;;;;;;9.88;2.63;;;24.40;98.40;;;;;;4241335;27;20617;-80
2022/07/18 07:54:57;;;;;;;10.52;3.00;;;24.50;98.30;;;;;;4239159;27;20305;-81
2022/07/18 07:57:02;;;;;;;7.78;2.83;;;24.50;98.50;;;;;;4247370;27;21056;-79
2022/07/18 07:59:05;;;;;;;9.30;2.80;;;24.50;98.30;;;;;;4240055;27;20210;-82
2022/07/18 08:01:07;;;;;;;8.85;3.17;;;24.50;98.70;;;;;;4239208;27;20267;-81
2022/07/18 08:03:10;;;;;;;9.68;2.90;;;24.60;98.80;;;;;;4240247;27;20262;-83
2022/07/18 08:05:12;;;;;;;5.97;2.75;;;24.70;99.50;;;;;;4237289;27;20205;-83
2022/07/18 08:07:14;;;;;;;5.70;2.50;;;24.70;99.60;;;;;;4245482;27;20613;-82
2022/07/18 08:09:17;;;;;;;9.32;3.20;;;24.80;99.80;;;;;;4239444;27;20253;-82
2022/07/18 08:11:22;;;;;;;5.90;2.30;;;24.80;99.90;;;;;;4235308;27;20263;-83
2022/07/18 08:13:24;;;;;;;9.75;2.80;;;24.80;98.80;;;;;;4245991;27;21754;-82
2022/07/18 08:15:27;;;;;;;5.97;2.72;;;24.80;99.50;;;;;;4239984;27;20222;-83
2022/07/18 08:17:30;;;;;;;10.70;2.90;;;24.80;99.90;;;;;;4238341;27;20626;-82
2022/07/18 08:19:35;;;;;;;6.90;2.80;;;24.80;99.10;;;;;;4236384;27;20213;-84
2022/07/18 08:21:39;;;;;;;9.02;2.50;;;24.80;99.40;;;;;;4247046;27;20327;-82
2022/07/18 08:23:43;;;;;;;6.13;2.40;;;24.90;99.90;;;;;;4257427;27;20265;-83
2022/07/18 08:25:47;;;;;;;5.97;2.20;;;24.80;99.90;;;;;;4250084;27;20213;-81
2022/07/18 08:27:50;;;;;;;6.85;2.42;;;24.90;99.90;;;;;;4244992;27;20209;-81
2022/07/18 08:29:53;;;;;;;5.55;2.83;;;24.90;99.90;;;;;;4245953;27;20258;-81
2022/07/18 08:31:55;;;;;;;5.13;2.55;;;24.90;99.90;;;;;;4247306;27;20250;-81
2022/07/18 08:33:59;;;;;;;8.25;2.90;;;24.90;99.90;;;;;;4245601;27;20262;-80
2022/07/18 08:36:01;;;;;;;6.30;2.70;;;24.90;99.60;;;;;;4248291;27;20221;-79
2022/07/18 08:38:04;;;;;;;6.85;2.55;;;24.90;99.90;;;;;;4246462;27;20627;-82
2022/07/18 08:40:08;;;;;;;7.28;2.40;;;24.90;99.90;;;;;;4247853;27;20204;-81
2022/07/18 08:42:12;;;;;;;6.63;2.45;;;24.90;99.90;;;;;;4246384;27;20278;-83
2022/07/18 08:44:16;;;;;;;4.57;2.28;;;24.90;99.90;;;;;;4248568;27;20252;-83
2022/07/18 08:46:21;;;;;;;5.68;2.50;;;24.90;99.70;;;;;;4245883;27;20974;-81
2022/07/18 08:48:23;;;;;;;5.85;2.63;;;24.90;99.10;;;;;;4244594;27;20266;-77
2022/07/18 08:50:27;;;;;;;8.00;2.90;;;24.90;98.50;;;;;;4245292;27;20229;-83
2022/07/18 08:52:30;;;;;;;6.68;2.67;;;24.90;98.60;;;;;;4252002;27;20742;-80
2022/07/18 08:54:33;;;;;;;8.70;2.53;;;24.90;98.90;;;;;;4246068;27;20221;-81
2022/07/18 08:56:35;;;;;;;5.30;2.53;;;24.90;99.50;;;;;;4247139;27;20209;-79
2022/07/18 08:58:38;;;;;;;6.78;2.63;;;25.00;98.30;;;;;;4245210;27;20209;-79
2022/07/18 09:00:42;;;;;;;9.93;3.13;;;24.90;98.10;;;;;;4245772;27;20615;-82
2022/07/18 09:02:44;;;;;;;5.55;2.40;;;25.00;98.40;;;;;;4243703;27;20231;-80
2022/07/18 09:04:47;;;;;;;6.32;2.92;;;25.00;99.40;;;;;;4246377;27;20217;-80
2022/07/18 09:06:52;;;;;;;5.50;2.80;;;25.10;99.40;;;;;;4246830;27;20213;-80
2022/07/18 09:09:02;;;;;;;6.22;2.85;;;25.00;99.10;;;;;;4246358;27;20213;-82
2022/07/18 09:11:09;;;;;;;4.50;2.47;;;25.10;99.00;;;;;;4242375;27;20700;-80
2022/07/18 09:13:11;;;;;;;3.60;2.40;;;25.10;99.70;;;;;;4244857;27;20197;-79
2022/07/18 09:15:15;;;;;;;6.45;2.53;;;25.10;99.50;;;;;;4243916;27;20661;-80
2022/07/18 09:17:21;;;;;;;5.25;2.60;;;25.10;99.60;;;;;;4238025;27;20626;-77
2022/07/18 09:19:23;;;;;;;6.53;2.80;;;25.10;99.00;;;;;;4230812;27;20294;-80
2022/07/18 09:21:25;;;;;;;6.65;2.80;;;25.10;99.20;;;;;;4244446;27;20201;-79
2022/07/18 09:23:30;;;;;;;4.88;2.50;;;25.10;99.80;;;;;;4239626;27;20209;-82
2022/07/18 09:25:34;;;;;;;6.70;2.30;;;25.20;99.10;;;;;;4245778;27;20209;-79
2022/07/18 09:27:39;;;;;;;7.40;2.88;;;25.20;99.40;;;;;;4241957;27;20615;-79
2022/07/18 09:29:41;;;;;;;7.68;2.70;;;25.20;99.40;;;;;;4246478;27;20672;-78
2022/07/18 09:31:49;;;;;;;11.07;2.60;;;25.20;99.10;;;;;;4243990;27;20648;-79
2022/07/18 09:33:54;;;;;;;7.25;2.83;;;25.20;99.30;;;;;;4242882;27;20209;-77
2022/07/18 09:35:57;;;;;;;5.40;2.47;;;25.20;99.40;;;;;;4233386;27;20665;-78
2022/07/18 09:38:02;;;;;;;4.20;2.15;;;25.20;99.60;;;;;;4237799;27;20221;-78
2022/07/18 09:40:23;;;;;;;5.68;2.30;;;25.30;99.60;;;;;;4234562;27;20259;-81
2022/07/18 09:42:25;;;;;;;3.58;2.42;;;25.30;99.50;;;;;;4228385;27;20678;-79
2022/07/18 09:44:27;;;;;;;4.82;2.42;;;25.30;99.40;;;;;;4240295;27;20262;-78
2022/07/18 09:46:30;;;;;;;3.83;2.42;;;25.20;98.90;;;;;;4243545;27;20269;-80
2022/07/18 09:48:32;;;;;;;4.25;2.38;;;25.30;99.80;;;;;;4241868;27;21540;-79
2022/07/18 09:50:38;;;;;;;4.57;2.33;;;25.30;98.50;;;;;;4246937;27;20293;-79
2022/07/18 09:52:42;;;;;;;7.10;2.78;;;25.30;98.80;;;;;;4239690;27;20221;-80
2022/07/18 09:54:45;;;;;;;5.03;2.72;;;25.30;98.90;;;;;;4243762;27;20225;-78
2022/07/18 09:56:47;;;;;;;4.55;2.33;;;25.30;98.80;;;;;;4243425;27;20258;-79
2022/07/18 09:58:53;;;;;;;5.35;2.40;;;25.30;98.70;;;;;;4252620;27;20213;-84
2022/07/18 10:00:57;;;;;;;6.00;2.10;;;25.30;99.10;;;;;;4232386;27;20197;-82
2022/07/18 10:03:01;;;;;;;5.15;2.42;;;25.40;99.10;;;;;;4246354;27;20626;-84
2022/07/18 10:05:03;;;;;;;6.82;2.47;;;25.40;99.00;;;;;;4231994;27;20209;-83
2022/07/18 10:07:07;;;;;;;6.43;2.80;;;25.40;98.40;;;;;;4230530;27;20208;-82
2022/07/18 10:09:09;;;;;;;3.90;2.20;;;25.40;99.00;;;;;;4245729;27;20600;-83
2022/07/18 10:11:12;;;;;;;5.60;2.28;;;25.40;97.80;;;;;;4239307;27;20301;-80
2022/07/18 10:13:15;;;;;;;4.97;2.10;;;25.30;97.60;;;;;;4244822;27;20250;-80
2022/07/18 10:15:18;;;;;;;8.18;3.00;;;25.30;97.50;;;;;;4245341;27;20653;-81
2022/07/18 10:17:23;;;;;;;6.10;2.78;;;25.40;97.90;;;;;;4241244;27;20973;-81
2022/07/18 10:19:25;;;;;;;9.55;2.80;;;25.40;98.00;;;;;;4249354;27;20246;-81
2022/07/18 10:21:29;;;;;;;6.53;2.67;;;25.40;98.50;;;;;;4245879;27;20210;-81
2022/07/18 10:23:36;;;;;;;6.18;2.20;;;25.40;98.10;;;;;;4236333;27;20657;-82
2022/07/18 10:25:39;;;;;;;5.45;1.88;;;25.40;98.50;;;;;;4236182;28;20213;-82
2022/07/18 10:27:53;;;;;;;5.07;2.22;;;25.50;97.90;;;;;;4248925;27;20293;-79
2022/07/18 10:30:13;;;;;;;5.95;2.15;;;25.50;98.30;;;;;;4241133;27;20257;-81
2022/07/18 10:32:32;;;;;;;2.97;2.05;;;25.50;98.40;;;;;;4238539;27;20213;-82
2022/07/18 10:34:37;;;;;;;3.85;2.05;;;25.50;98.60;;;;;;4235981;27;20234;-83
2022/07/18 10:36:41;;;;;;;5.20;2.40;;;25.50;98.30;;;;;;4239467;27;20220;-81
2022/07/18 10:39:08;;;;;;;5.20;2.50;;;25.50;98.10;;;;;;4244578;27;20273;-79